createdAt,value
2019-05-25T01:36:01.739Z,76.27
2019-05-25T01:38:33.852Z,75.52
2019-05-25T01:41:07.588Z,75.33
2019-05-25T01:43:41.106Z,75.45
2019-05-25T01:46:14.986Z,75.35
2019-05-25T01:48:46.940Z,75.35
2019-05-25T08:17:49.245Z,49.06
2019-05-25T08:20:22.186Z,48.30
2019-05-25T08:22:53.843Z,48.05
2019-05-25T08:25:25.363Z,47.93
2019-05-25T08:27:56.763Z,47.84
2019-05-25T08:30:28.003Z,47.67
2019-05-25T08:32:59.085Z,47.86
2019-05-25T08:35:31.043Z,48.00
2019-05-25T08:38:03.642Z,48.15
2019-05-25T08:40:36.742Z,48.25
2019-05-25T08:43:07.703Z,48.35
2019-05-25T08:45:38.662Z,48.38
2019-05-25T08:48:11.264Z,48.54
2019-05-25T08:50:42.506Z,48.61
2019-05-25T08:53:14.784Z,48.61
2019-05-25T08:56:07.638Z,48.47
2019-05-25T08:58:47.988Z,48.43
2019-05-25T09:01:12.999Z,48.63
2019-05-25T09:03:44.299Z,48.72
2019-05-25T09:06:15.761Z,48.59
2019-05-25T09:09:51.498Z,48.17
2019-05-25T09:12:21.969Z,48.19
2019-05-25T09:14:59.970Z,48.56
2019-05-25T09:17:30.489Z,48.78
2019-05-25T09:20:00.096Z,48.29
2019-05-25T09:22:30.727Z,47.75
2019-05-25T09:25:00.232Z,47.65
2019-05-25T09:27:30.580Z,47.11
2019-05-25T09:30:08.789Z,47.95
2019-05-25T09:32:40.272Z,47.00
2019-05-25T09:35:17.074Z,46.70
2019-05-25T09:37:47.791Z,46.35
2019-05-25T09:40:18.445Z,46.70
2019-05-25T09:42:49.007Z,46.92
2019-05-25T09:45:22.266Z,46.81
2019-05-25T09:47:52.919Z,47.07
2019-05-25T09:50:23.336Z,46.44
2019-05-25T09:52:53.692Z,46.10
2019-05-25T09:55:24.335Z,45.99
2019-05-25T09:57:54.049Z,45.97
2019-05-25T10:00:24.457Z,46.07
2019-05-25T10:02:55.134Z,46.69
2019-05-25T10:05:25.797Z,47.12
2019-05-25T10:07:56.802Z,47.46
2019-05-25T10:10:29.109Z,47.46
2019-05-25T10:12:59.791Z,47.28
2019-05-25T10:15:30.369Z,47.11
2019-05-25T10:18:00.731Z,47.24
2019-05-25T10:20:31.392Z,47.19
2019-05-25T10:23:02.636Z,47.28
2019-05-25T10:25:38.835Z,47.35
2019-05-25T10:28:09.578Z,47.40
2019-05-25T10:30:41.967Z,47.16
2019-05-25T10:33:12.656Z,46.91
2019-05-25T10:35:48.898Z,46.66
2019-05-25T10:38:16.454Z,46.41
2019-05-25T10:40:52.003Z,46.26
2019-05-25T10:43:23.810Z,46.20
2019-05-25T10:45:55.023Z,46.13
2019-05-25T10:48:27.249Z,45.90
2019-05-25T10:50:59.266Z,45.71
2019-05-25T10:53:38.858Z,45.62
2019-05-25T10:56:10.527Z,45.72
2019-05-25T10:58:41.257Z,45.82
2019-05-25T11:01:12.809Z,45.74
2019-05-25T11:03:43.543Z,46.04
2019-05-25T11:06:14.120Z,46.27
2019-05-25T11:08:44.704Z,46.59
2019-05-25T11:11:14.532Z,46.67
2019-05-25T11:13:48.820Z,46.46
2019-05-25T11:16:19.438Z,46.65
2019-05-25T11:18:50.390Z,46.61
2019-05-25T11:21:20.966Z,46.51
2019-05-25T11:34:10.060Z,46.59
2019-05-25T11:36:39.798Z,46.33
2019-05-25T11:39:13.037Z,46.31
2019-05-25T11:41:46.378Z,46.33
2019-05-25T11:44:23.595Z,46.27
2019-05-25T11:46:52.173Z,46.33
2019-05-25T11:49:26.007Z,46.06
2019-05-25T11:51:58.717Z,45.80
2019-05-25T11:54:29.470Z,45.77
2019-05-25T11:57:00.034Z,45.77
2019-05-25T11:59:32.014Z,45.95
2019-05-25T12:02:04.302Z,45.84
2019-05-25T12:04:34.781Z,45.54
2019-05-25T12:07:06.802Z,45.63
2019-05-25T12:09:37.413Z,48.17
2019-05-25T12:12:10.669Z,45.10
2019-05-25T12:14:41.040Z,45.60
2019-05-25T12:17:11.411Z,43.99
2019-05-25T12:19:41.862Z,44.06
2019-05-25T12:22:13.923Z,44.02
2019-05-25T12:25:33.583Z,43.47
2019-05-25T12:27:16.796Z,43.00
2019-05-25T12:29:46.545Z,42.92
2019-05-25T12:32:29.221Z,42.95
2019-05-25T12:34:49.051Z,43.23
2019-05-25T12:37:21.647Z,42.83
2019-05-25T12:39:52.407Z,42.77
2019-05-25T12:42:25.998Z,42.77
2019-05-25T12:44:58.238Z,43.16
2019-05-25T12:47:28.311Z,43.12
2019-05-25T12:49:58.939Z,43.08
2019-05-25T12:52:30.793Z,43.18
2019-05-25T12:55:01.109Z,43.26
2019-05-25T12:57:33.293Z,43.39
2019-05-25T13:00:15.359Z,43.36
2019-05-25T13:02:40.486Z,43.34
2019-05-25T13:05:10.745Z,43.26
2019-05-25T13:07:42.602Z,43.27
2019-05-25T13:10:15.834Z,43.24
2019-05-25T13:12:52.853Z,43.36
2019-05-25T13:15:26.100Z,43.42
2019-05-25T13:17:59.135Z,43.41
2019-05-25T13:20:29.566Z,43.47
2019-05-25T13:23:05.471Z,43.56
2019-05-25T13:25:40.050Z,43.61
2019-05-25T13:28:12.200Z,43.66
2019-05-25T13:30:47.694Z,43.64
2019-05-25T13:33:18.031Z,43.43
2019-05-25T13:35:50.111Z,43.35
2019-05-25T13:38:20.359Z,43.16
2019-05-25T13:40:52.708Z,43.08
2019-05-25T13:43:24.435Z,42.93
2019-05-25T13:45:56.324Z,42.77
2019-05-25T13:48:27.937Z,42.61
2019-05-25T13:50:58.417Z,42.52
2019-05-25T13:53:33.080Z,42.52
2019-05-25T13:56:04.795Z,42.37
2019-05-25T13:58:40.607Z,42.22
2019-05-25T14:01:27.500Z,42.42
2019-05-25T14:03:45.841Z,42.28
2019-05-25T14:06:23.080Z,42.09
2019-05-25T14:08:51.139Z,41.93
2019-05-25T14:11:21.513Z,41.88
2019-05-25T14:13:57.731Z,41.80
2019-05-25T14:16:28.857Z,41.82
2019-05-25T14:18:59.173Z,41.75
2019-05-25T14:21:36.242Z,41.59
2019-05-25T14:24:03.237Z,41.37
2019-05-25T14:26:33.558Z,41.49
2019-05-25T14:29:04.086Z,41.40
2019-05-25T14:31:44.952Z,41.36
2019-05-25T14:34:07.621Z,41.06
2019-05-25T14:36:40.854Z,41.06
2019-05-25T14:39:11.273Z,40.92
2019-05-25T14:41:41.653Z,40.79
2019-05-25T14:44:15.670Z,40.81
2019-05-25T14:46:43.994Z,40.65
2019-05-25T14:49:14.323Z,40.59
2019-05-25T14:51:44.746Z,40.51
2019-05-25T14:54:16.288Z,40.36
